sensor_id;sensor_type;location;lat;lon;timestamp;temperature;humidity
16838;DHT22;19510;54.486;9.046;2023-08-30T00:01:05;15.20;99.90
16838;DHT22;19510;54.486;9.046;2023-08-30T00:03:31;15.30;99.90
16838;DHT22;19510;54.486;9.046;2023-08-30T00:06:04;15.30;99.90
16838;DHT22;19510;54.486;9.046;2023-08-30T00:08:35;15.30;99.90
16838;DHT22;19510;54.486;9.046;2023-08-30T00:11:01;15.20;99.90
16838;DHT22;19510;54.486;9.046;2023-08-30T00:13:29;15.20;99.90
16838;DHT22;19510;54.486;9.046;2023-08-30T00:15:55;15.20;99.90
16838;DHT22;19510;54.486;9.046;2023-08-30T00:18:24;15.20;99.90
16838;DHT22;19510;54.486;9.046;2023-08-30T00:20:50;15.20;99.90
16838;DHT22;19510;54.486;9.046;2023-08-30T00:23:15;15.20;99.90
16838;DHT22;19510;54.486;9.046;2023-08-30T00:25:42;15.20;99.90
16838;DHT22;19510;54.486;9.046;2023-08-30T00:28:07;15.20;99.90
16838;DHT22;19510;54.486;9.046;2023-08-30T00:30:33;15.20;99.90
16838;DHT22;19510;54.486;9.046;2023-08-30T00:32:59;15.30;99.90
16838;DHT22;19510;54.486;9.046;2023-08-30T00:35:25;15.20;99.90
16838;DHT22;19510;54.486;9.046;2023-08-30T00:37:50;15.20;99.90
16838;DHT22;19510;54.486;9.046;2023-08-30T00:40:16;15.20;99.90
16838;DHT22;19510;54.486;9.046;2023-08-30T00:42:42;15.30;99.90
16838;DHT22;19510;54.486;9.046;2023-08-30T00:45:11;15.30;99.90
16838;DHT22;19510;54.486;9.046;2023-08-30T00:47:36;15.30;99.90
16838;DHT22;19510;54.486;9.046;2023-08-30T00:50:02;15.30;99.90
16838;DHT22;19510;54.486;9.046;2023-08-30T00:52:28;15.20;99.90
16838;DHT22;19510;54.486;9.046;2023-08-30T00:54:54;15.20;99.90
16838;DHT22;19510;54.486;9.046;2023-08-30T00:57:20;15.30;99.90
16838;DHT22;19510;54.486;9.046;2023-08-30T00:59:45;15.30;99.90
16838;DHT22;19510;54.486;9.046;2023-08-30T01:02:11;15.30;99.90
16838;DHT22;19510;54.486;9.046;2023-08-30T01:04:40;15.30;99.90
16838;DHT22;19510;54.486;9.046;2023-08-30T01:07:06;15.20;99.90
16838;DHT22;19510;54.486;9.046;2023-08-30T01:09:31;15.20;99.90
16838;DHT22;19510;54.486;9.046;2023-08-30T01:12:12;15.20;99.90
16838;DHT22;19510;54.486;9.046;2023-08-30T01:15:20;15.20;99.90
16838;DHT22;19510;54.486;9.046;2023-08-30T01:17:52;15.30;99.90
16838;DHT22;19510;54.486;9.046;2023-08-30T01:20:22;15.20;99.90
16838;DHT22;19510;54.486;9.046;2023-08-30T01:23:03;15.30;99.90
16838;DHT22;19510;54.486;9.046;2023-08-30T01:28:13;15.20;99.90
16838;DHT22;19510;54.486;9.046;2023-08-30T01:30:42;15.30;99.90
16838;DHT22;19510;54.486;9.046;2023-08-30T01:33:09;15.30;99.90
16838;DHT22;19510;54.486;9.046;2023-08-30T01:35:37;15.30;99.90
16838;DHT22;19510;54.486;9.046;2023-08-30T01:38:04;15.30;99.90
16838;DHT22;19510;54.486;9.046;2023-08-30T01:40:37;15.30;99.90
16838;DHT22;19510;54.486;9.046;2023-08-30T01:43:05;15.30;99.90
16838;DHT22;19510;54.486;9.046;2023-08-30T01:45:40;15.30;99.90
16838;DHT22;19510;54.486;9.046;2023-08-30T01:48:14;15.30;99.90
16838;DHT22;19510;54.486;9.046;2023-08-30T01:50:42;15.40;99.90
16838;DHT22;19510;54.486;9.046;2023-08-30T01:53:11;15.30;99.90
16838;DHT22;19510;54.486;9.046;2023-08-30T01:55:37;15.30;99.90
16838;DHT22;19510;54.486;9.046;2023-08-30T01:58:05;15.30;99.90
16838;DHT22;19510;54.486;9.046;2023-08-30T02:00:31;15.30;99.90
16838;DHT22;19510;54.486;9.046;2023-08-30T02:02:57;15.30;99.90
16838;DHT22;19510;54.486;9.046;2023-08-30T02:05:23;15.30;99.90
16838;DHT22;19510;54.486;9.046;2023-08-30T02:08:02;15.30;99.90
16838;DHT22;19510;54.486;9.046;2023-08-30T02:10:35;15.30;99.90
16838;DHT22;19510;54.486;9.046;2023-08-30T02:13:04;15.30;99.90
16838;DHT22;19510;54.486;9.046;2023-08-30T02:15:31;15.20;99.90
16838;DHT22;19510;54.486;9.046;2023-08-30T02:18:03;15.20;99.90
16838;DHT22;19510;54.486;9.046;2023-08-30T02:20:28;15.20;99.90
16838;DHT22;19510;54.486;9.046;2023-08-30T02:22:58;15.20;99.90
16838;DHT22;19510;54.486;9.046;2023-08-30T02:25:24;15.20;99.90
16838;DHT22;19510;54.486;9.046;2023-08-30T02:27:50;15.20;99.90
16838;DHT22;19510;54.486;9.046;2023-08-30T02:30:16;15.20;99.90
16838;DHT22;19510;54.486;9.046;2023-08-30T02:32:41;15.20;99.90
16838;DHT22;19510;54.486;9.046;2023-08-30T02:35:07;15.20;99.90
16838;DHT22;19510;54.486;9.046;2023-08-30T02:37:33;15.10;99.90
16838;DHT22;19510;54.486;9.046;2023-08-30T02:40:02;15.10;99.90
16838;DHT22;19510;54.486;9.046;2023-08-30T02:42:28;15.10;99.90
16838;DHT22;19510;54.486;9.046;2023-08-30T02:44:54;15.10;99.90
16838;DHT22;19510;54.486;9.046;2023-08-30T02:47:20;15.10;99.90
16838;DHT22;19510;54.486;9.046;2023-08-30T02:49:45;15.10;99.90
16838;DHT22;19510;54.486;9.046;2023-08-30T02:52:11;15.10;99.90
16838;DHT22;19510;54.486;9.046;2023-08-30T02:54:37;15.10;99.90
16838;DHT22;19510;54.486;9.046;2023-08-30T02:57:02;15.10;99.90
16838;DHT22;19510;54.486;9.046;2023-08-30T02:59:29;15.10;99.90
16838;DHT22;19510;54.486;9.046;2023-08-30T03:01:55;15.10;99.90
16838;DHT22;19510;54.486;9.046;2023-08-30T03:04:20;15.10;99.90
16838;DHT22;19510;54.486;9.046;2023-08-30T03:06:46;15.10;99.90
16838;DHT22;19510;54.486;9.046;2023-08-30T03:09:12;15.10;99.90
16838;DHT22;19510;54.486;9.046;2023-08-30T03:11:37;15.10;99.90
16838;DHT22;19510;54.486;9.046;2023-08-30T03:14:03;15.10;99.90
16838;DHT22;19510;54.486;9.046;2023-08-30T03:16:29;15.10;99.90
16838;DHT22;19510;54.486;9.046;2023-08-30T03:18:57;15.20;99.90
16838;DHT22;19510;54.486;9.046;2023-08-30T03:21:23;15.10;99.90
16838;DHT22;19510;54.486;9.046;2023-08-30T03:23:48;15.10;99.90
16838;DHT22;19510;54.486;9.046;2023-08-30T03:26:15;15.10;99.90
16838;DHT22;19510;54.486;9.046;2023-08-30T03:28:44;15.10;99.90
16838;DHT22;19510;54.486;9.046;2023-08-30T03:31:17;15.10;99.90
16838;DHT22;19510;54.486;9.046;2023-08-30T03:33:43;15.10;99.90
16838;DHT22;19510;54.486;9.046;2023-08-30T03:36:16;15.10;99.90
16838;DHT22;19510;54.486;9.046;2023-08-30T03:38:42;15.10;99.90
16838;DHT22;19510;54.486;9.046;2023-08-30T03:41:09;15.10;99.90
16838;DHT22;19510;54.486;9.046;2023-08-30T03:43:37;15.10;99.90
16838;DHT22;19510;54.486;9.046;2023-08-30T03:46:03;15.00;99.90
16838;DHT22;19510;54.486;9.046;2023-08-30T03:48:31;15.00;99.90
16838;DHT22;19510;54.486;9.046;2023-08-30T03:50:58;15.00;99.90
16838;DHT22;19510;54.486;9.046;2023-08-30T03:53:24;15.00;99.90
16838;DHT22;19510;54.486;9.046;2023-08-30T03:55:50;15.00;99.90
16838;DHT22;19510;54.486;9.046;2023-08-30T03:58:19;14.90;99.90
16838;DHT22;19510;54.486;9.046;2023-08-30T04:00:45;14.90;99.90
16838;DHT22;19510;54.486;9.046;2023-08-30T04:03:16;14.90;99.90
16838;DHT22;19510;54.486;9.046;2023-08-30T04:05:44;14.90;99.90
16838;DHT22;19510;54.486;9.046;2023-08-30T04:08:10;14.90;99.90
16838;DHT22;19510;54.486;9.046;2023-08-30T04:10:40;14.90;99.90
16838;DHT22;19510;54.486;9.046;2023-08-30T04:13:07;14.90;99.90
16838;DHT22;19510;54.486;9.046;2023-08-30T04:15:37;14.90;99.90
16838;DHT22;19510;54.486;9.046;2023-08-30T04:18:05;14.90;99.90
16838;DHT22;19510;54.486;9.046;2023-08-30T04:20:34;14.80;99.90
16838;DHT22;19510;54.486;9.046;2023-08-30T04:23:01;14.80;99.90
16838;DHT22;19510;54.486;9.046;2023-08-30T04:25:30;14.80;99.90
16838;DHT22;19510;54.486;9.046;2023-08-30T04:27:57;14.80;99.90
16838;DHT22;19510;54.486;9.046;2023-08-30T04:30:22;14.80;99.90
16838;DHT22;19510;54.486;9.046;2023-08-30T04:32:48;14.80;99.90
16838;DHT22;19510;54.486;9.046;2023-08-30T04:35:14;14.80;99.90
16838;DHT22;19510;54.486;9.046;2023-08-30T04:37:40;14.80;99.90
16838;DHT22;19510;54.486;9.046;2023-08-30T04:40:07;14.80;99.90
16838;DHT22;19510;54.486;9.046;2023-08-30T04:42:34;14.80;99.90
16838;DHT22;19510;54.486;9.046;2023-08-30T04:45:01;14.80;99.90
16838;DHT22;19510;54.486;9.046;2023-08-30T04:47:31;14.80;99.90
16838;DHT22;19510;54.486;9.046;2023-08-30T04:49:57;14.80;99.90
16838;DHT22;19510;54.486;9.046;2023-08-30T04:52:25;14.90;99.90
16838;DHT22;19510;54.486;9.046;2023-08-30T04:54:53;14.90;99.90
16838;DHT22;19510;54.486;9.046;2023-08-30T04:57:19;14.90;99.90
16838;DHT22;19510;54.486;9.046;2023-08-30T04:59:45;14.90;99.90
16838;DHT22;19510;54.486;9.046;2023-08-30T05:02:11;14.90;99.90
16838;DHT22;19510;54.486;9.046;2023-08-30T05:04:37;14.90;99.90
16838;DHT22;19510;54.486;9.046;2023-08-30T05:07:03;14.90;99.90
16838;DHT22;19510;54.486;9.046;2023-08-30T05:09:33;14.90;99.90
16838;DHT22;19510;54.486;9.046;2023-08-30T05:12:04;14.90;99.90
16838;DHT22;19510;54.486;9.046;2023-08-30T05:14:30;14.90;99.90
16838;DHT22;19510;54.486;9.046;2023-08-30T05:16:56;15.00;99.90
16838;DHT22;19510;54.486;9.046;2023-08-30T05:19:21;15.00;99.90
16838;DHT22;19510;54.486;9.046;2023-08-30T05:21:49;15.00;99.90
16838;DHT22;19510;54.486;9.046;2023-08-30T05:24:21;15.00;99.90
16838;DHT22;19510;54.486;9.046;2023-08-30T05:26:46;15.00;99.90
16838;DHT22;19510;54.486;9.046;2023-08-30T05:29:13;15.00;99.90
16838;DHT22;19510;54.486;9.046;2023-08-30T05:31:39;15.00;99.90
16838;DHT22;19510;54.486;9.046;2023-08-30T05:34:05;15.10;99.90
16838;DHT22;19510;54.486;9.046;2023-08-30T05:36:31;15.10;99.90
16838;DHT22;19510;54.486;9.046;2023-08-30T05:38:56;15.10;99.90
16838;DHT22;19510;54.486;9.046;2023-08-30T05:41:24;15.10;99.90
16838;DHT22;19510;54.486;9.046;2023-08-30T05:43:51;15.10;99.90
16838;DHT22;19510;54.486;9.046;2023-08-30T05:46:16;15.10;99.90
16838;DHT22;19510;54.486;9.046;2023-08-30T05:48:42;15.10;99.90
16838;DHT22;19510;54.486;9.046;2023-08-30T05:51:08;15.20;99.90
16838;DHT22;19510;54.486;9.046;2023-08-30T05:53:36;15.20;99.90
16838;DHT22;19510;54.486;9.046;2023-08-30T05:56:10;15.20;99.90
16838;DHT22;19510;54.486;9.046;2023-08-30T05:58:35;15.20;99.90
16838;DHT22;19510;54.486;9.046;2023-08-30T06:01:03;15.30;99.90
16838;DHT22;19510;54.486;9.046;2023-08-30T06:03:34;15.30;99.90
16838;DHT22;19510;54.486;9.046;2023-08-30T06:06:00;15.30;99.90
16838;DHT22;19510;54.486;9.046;2023-08-30T06:08:29;15.30;99.90
16838;DHT22;19510;54.486;9.046;2023-08-30T06:10:55;15.30;99.90
16838;DHT22;19510;54.486;9.046;2023-08-30T06:13:20;15.40;99.90
16838;DHT22;19510;54.486;9.046;2023-08-30T06:15:50;15.40;99.90
16838;DHT22;19510;54.486;9.046;2023-08-30T06:18:16;15.40;99.90
16838;DHT22;19510;54.486;9.046;2023-08-30T06:24:07;15.50;99.90
16838;DHT22;19510;54.486;9.046;2023-08-30T06:26:33;15.50;99.90
16838;DHT22;19510;54.486;9.046;2023-08-30T06:32:20;15.50;99.90
16838;DHT22;19510;54.486;9.046;2023-08-30T06:34:46;15.60;99.90
16838;DHT22;19510;54.486;9.046;2023-08-30T06:37:12;15.60;99.90
16838;DHT22;19510;54.486;9.046;2023-08-30T06:39:37;15.60;99.90
16838;DHT22;19510;54.486;9.046;2023-08-30T06:42:04;15.60;99.90
16838;DHT22;19510;54.486;9.046;2023-08-30T06:44:32;15.60;99.90
16838;DHT22;19510;54.486;9.046;2023-08-30T06:46:57;15.60;99.90
16838;DHT22;19510;54.486;9.046;2023-08-30T06:49:23;15.60;99.90
16838;DHT22;19510;54.486;9.046;2023-08-30T06:51:49;15.70;99.90
16838;DHT22;19510;54.486;9.046;2023-08-30T06:54:15;15.70;99.90
16838;DHT22;19510;54.486;9.046;2023-08-30T06:56:41;15.70;99.90
16838;DHT22;19510;54.486;9.046;2023-08-30T06:59:06;15.80;99.90
16838;DHT22;19510;54.486;9.046;2023-08-30T07:01:32;15.80;99.90
16838;DHT22;19510;54.486;9.046;2023-08-30T07:03:58;15.80;99.90
16838;DHT22;19510;54.486;9.046;2023-08-30T07:06:23;15.90;99.90
16838;DHT22;19510;54.486;9.046;2023-08-30T07:08:49;15.90;99.90
16838;DHT22;19510;54.486;9.046;2023-08-30T07:11:15;16.00;99.90
16838;DHT22;19510;54.486;9.046;2023-08-30T07:13:45;16.00;99.90
16838;DHT22;19510;54.486;9.046;2023-08-30T07:16:11;16.00;99.90
16838;DHT22;19510;54.486;9.046;2023-08-30T07:18:39;16.00;99.90
16838;DHT22;19510;54.486;9.046;2023-08-30T07:21:05;16.10;99.90
16838;DHT22;19510;54.486;9.046;2023-08-30T07:23:33;16.10;99.90
16838;DHT22;19510;54.486;9.046;2023-08-30T07:25:59;16.20;99.90
16838;DHT22;19510;54.486;9.046;2023-08-30T07:28:25;16.20;99.90
16838;DHT22;19510;54.486;9.046;2023-08-30T07:30:52;16.20;99.90
16838;DHT22;19510;54.486;9.046;2023-08-30T07:33:26;16.20;99.90
16838;DHT22;19510;54.486;9.046;2023-08-30T07:35:56;16.30;99.90
16838;DHT22;19510;54.486;9.046;2023-08-30T07:38:21;16.30;99.90
16838;DHT22;19510;54.486;9.046;2023-08-30T07:40:47;16.40;99.90
16838;DHT22;19510;54.486;9.046;2023-08-30T07:43:13;16.40;99.90
16838;DHT22;19510;54.486;9.046;2023-08-30T07:45:39;16.40;99.90
16838;DHT22;19510;54.486;9.046;2023-08-30T07:48:04;16.40;99.90
16838;DHT22;19510;54.486;9.046;2023-08-30T07:50:30;16.40;99.90
16838;DHT22;19510;54.486;9.046;2023-08-30T07:52:56;16.50;99.90
16838;DHT22;19510;54.486;9.046;2023-08-30T07:55:21;16.50;99.90
16838;DHT22;19510;54.486;9.046;2023-08-30T07:57:47;16.60;99.90
16838;DHT22;19510;54.486;9.046;2023-08-30T08:00:13;16.70;99.90
16838;DHT22;19510;54.486;9.046;2023-08-30T08:02:41;16.70;99.90
16838;DHT22;19510;54.486;9.046;2023-08-30T08:05:09;16.70;99.90
16838;DHT22;19510;54.486;9.046;2023-08-30T08:07:39;16.70;99.90
16838;DHT22;19510;54.486;9.046;2023-08-30T08:10:08;16.80;99.90
16838;DHT22;19510;54.486;9.046;2023-08-30T08:12:37;16.80;99.90
16838;DHT22;19510;54.486;9.046;2023-08-30T08:15:03;16.80;99.90
16838;DHT22;19510;54.486;9.046;2023-08-30T08:17:29;16.90;99.90
16838;DHT22;19510;54.486;9.046;2023-08-30T08:19:59;16.90;99.90
16838;DHT22;19510;54.486;9.046;2023-08-30T08:22:25;16.90;99.90
16838;DHT22;19510;54.486;9.046;2023-08-30T08:24:51;16.90;99.90
16838;DHT22;19510;54.486;9.046;2023-08-30T08:27:19;16.90;99.90
16838;DHT22;19510;54.486;9.046;2023-08-30T08:29:44;17.00;99.90
16838;DHT22;19510;54.486;9.046;2023-08-30T08:32:10;17.00;99.90
16838;DHT22;19510;54.486;9.046;2023-08-30T08:34:36;17.10;99.90
16838;DHT22;19510;54.486;9.046;2023-08-30T08:37:04;17.10;99.90
16838;DHT22;19510;54.486;9.046;2023-08-30T08:39:30;17.20;99.90
16838;DHT22;19510;54.486;9.046;2023-08-30T08:41:59;17.30;99.90
16838;DHT22;19510;54.486;9.046;2023-08-30T08:44:31;17.40;99.90
16838;DHT22;19510;54.486;9.046;2023-08-30T08:46:58;17.40;99.90
16838;DHT22;19510;54.486;9.046;2023-08-30T08:49:25;17.40;99.90
16838;DHT22;19510;54.486;9.046;2023-08-30T08:51:54;17.50;99.90
16838;DHT22;19510;54.486;9.046;2023-08-30T08:54:20;17.50;99.90
16838;DHT22;19510;54.486;9.046;2023-08-30T08:56:49;17.50;99.90
16838;DHT22;19510;54.486;9.046;2023-08-30T08:59:19;17.50;99.90
16838;DHT22;19510;54.486;9.046;2023-08-30T09:01:46;17.60;99.90
16838;DHT22;19510;54.486;9.046;2023-08-30T09:04:12;17.60;99.90
16838;DHT22;19510;54.486;9.046;2023-08-30T09:06:39;17.60;99.90
16838;DHT22;19510;54.486;9.046;2023-08-30T09:09:11;17.70;99.90
16838;DHT22;19510;54.486;9.046;2023-08-30T09:11:37;17.80;99.90
16838;DHT22;19510;54.486;9.046;2023-08-30T09:14:03;17.80;99.90
16838;DHT22;19510;54.486;9.046;2023-08-30T09:16:28;17.90;99.90
16838;DHT22;19510;54.486;9.046;2023-08-30T09:21:24;18.10;99.90
16838;DHT22;19510;54.486;9.046;2023-08-30T09:24:00;18.20;99.90
16838;DHT22;19510;54.486;9.046;2023-08-30T09:26:27;18.20;99.90
16838;DHT22;19510;54.486;9.046;2023-08-30T09:29:04;18.30;99.90
16838;DHT22;19510;54.486;9.046;2023-08-30T09:31:40;18.30;99.90
16838;DHT22;19510;54.486;9.046;2023-08-30T09:34:10;18.50;99.90
16838;DHT22;19510;54.486;9.046;2023-08-30T09:36:39;18.50;99.90
16838;DHT22;19510;54.486;9.046;2023-08-30T09:39:07;18.50;99.90
16838;DHT22;19510;54.486;9.046;2023-08-30T09:41:33;18.40;99.90
16838;DHT22;19510;54.486;9.046;2023-08-30T09:43:59;18.30;99.90
16838;DHT22;19510;54.486;9.046;2023-08-30T09:46:26;18.30;99.90
16838;DHT22;19510;54.486;9.046;2023-08-30T09:48:53;18.30;99.90
16838;DHT22;19510;54.486;9.046;2023-08-30T09:51:22;18.40;99.90
16838;DHT22;19510;54.486;9.046;2023-08-30T09:53:50;18.50;99.90
16838;DHT22;19510;54.486;9.046;2023-08-30T09:56:20;18.50;99.90
16838;DHT22;19510;54.486;9.046;2023-08-30T09:58:47;18.40;99.90
16838;DHT22;19510;54.486;9.046;2023-08-30T10:01:14;18.40;99.90
16838;DHT22;19510;54.486;9.046;2023-08-30T10:03:40;18.40;99.90
16838;DHT22;19510;54.486;9.046;2023-08-30T10:06:08;18.30;99.90
16838;DHT22;19510;54.486;9.046;2023-08-30T10:08:37;18.40;99.90
16838;DHT22;19510;54.486;9.046;2023-08-30T10:11:05;18.40;99.90
16838;DHT22;19510;54.486;9.046;2023-08-30T10:13:37;18.50;99.90
16838;DHT22;19510;54.486;9.046;2023-08-30T10:16:04;18.60;99.90
16838;DHT22;19510;54.486;9.046;2023-08-30T10:18:32;18.70;99.90
16838;DHT22;19510;54.486;9.046;2023-08-30T10:21:02;18.80;99.90
16838;DHT22;19510;54.486;9.046;2023-08-30T10:23:32;18.80;99.90
16838;DHT22;19510;54.486;9.046;2023-08-30T10:25:58;19.00;99.90
16838;DHT22;19510;54.486;9.046;2023-08-30T10:28:25;19.10;99.90
16838;DHT22;19510;54.486;9.046;2023-08-30T10:30:52;19.20;99.90
16838;DHT22;19510;54.486;9.046;2023-08-30T10:33:18;19.30;99.90
16838;DHT22;19510;54.486;9.046;2023-08-30T10:35:49;19.40;99.90
16838;DHT22;19510;54.486;9.046;2023-08-30T10:38:29;19.40;99.90
16838;DHT22;19510;54.486;9.046;2023-08-30T10:40:55;19.50;99.90
16838;DHT22;19510;54.486;9.046;2023-08-30T10:43:34;19.70;99.90
16838;DHT22;19510;54.486;9.046;2023-08-30T10:46:02;19.80;99.90
16838;DHT22;19510;54.486;9.046;2023-08-30T10:48:37;19.60;99.90
16838;DHT22;19510;54.486;9.046;2023-08-30T10:51:06;19.50;99.90
16838;DHT22;19510;54.486;9.046;2023-08-30T10:53:32;19.40;99.90
16838;DHT22;19510;54.486;9.046;2023-08-30T10:56:09;19.40;99.90
16838;DHT22;19510;54.486;9.046;2023-08-30T10:58:43;19.60;99.90
16838;DHT22;19510;54.486;9.046;2023-08-30T11:01:12;19.70;99.90
16838;DHT22;19510;54.486;9.046;2023-08-30T11:03:40;19.80;99.90
16838;DHT22;19510;54.486;9.046;2023-08-30T11:06:09;19.90;99.90
16838;DHT22;19510;54.486;9.046;2023-08-30T11:08:38;19.90;99.90
16838;DHT22;19510;54.486;9.046;2023-08-30T11:11:05;19.90;99.90
16838;DHT22;19510;54.486;9.046;2023-08-30T11:13:35;19.90;99.90
16838;DHT22;19510;54.486;9.046;2023-08-30T11:16:05;19.90;99.90
16838;DHT22;19510;54.486;9.046;2023-08-30T11:18:39;19.90;99.90
16838;DHT22;19510;54.486;9.046;2023-08-30T11:21:05;19.80;99.90
16838;DHT22;19510;54.486;9.046;2023-08-30T11:23:31;19.80;99.90
16838;DHT22;19510;54.486;9.046;2023-08-30T11:29:20;19.70;99.90
16838;DHT22;19510;54.486;9.046;2023-08-30T11:31:46;19.80;99.90
16838;DHT22;19510;54.486;9.046;2023-08-30T11:34:14;20.00;99.90
16838;DHT22;19510;54.486;9.046;2023-08-30T11:36:40;20.00;99.90
16838;DHT22;19510;54.486;9.046;2023-08-30T11:39:07;20.10;99.90
16838;DHT22;19510;54.486;9.046;2023-08-30T11:41:32;20.10;99.90
16838;DHT22;19510;54.486;9.046;2023-08-30T11:43:58;20.20;99.90
16838;DHT22;19510;54.486;9.046;2023-08-30T11:46:24;20.30;99.90
16838;DHT22;19510;54.486;9.046;2023-08-30T11:48:51;20.30;99.90
16838;DHT22;19510;54.486;9.046;2023-08-30T11:51:18;20.30;99.90
16838;DHT22;19510;54.486;9.046;2023-08-30T11:53:45;20.20;99.90
16838;DHT22;19510;54.486;9.046;2023-08-30T11:56:11;20.10;99.90
16838;DHT22;19510;54.486;9.046;2023-08-30T11:58:38;20.10;99.90
16838;DHT22;19510;54.486;9.046;2023-08-30T12:01:04;20.00;99.90
16838;DHT22;19510;54.486;9.046;2023-08-30T12:03:31;20.00;99.90
16838;DHT22;19510;54.486;9.046;2023-08-30T12:05:57;20.00;99.90
16838;DHT22;19510;54.486;9.046;2023-08-30T12:08:31;20.10;99.90
16838;DHT22;19510;54.486;9.046;2023-08-30T12:10:57;20.20;99.90
16838;DHT22;19510;54.486;9.046;2023-08-30T12:13:31;20.10;99.90
16838;DHT22;19510;54.486;9.046;2023-08-30T12:15:58;20.10;99.90
16838;DHT22;19510;54.486;9.046;2023-08-30T12:18:26;20.10;99.90
16838;DHT22;19510;54.486;9.046;2023-08-30T12:20:57;20.20;99.90
16838;DHT22;19510;54.486;9.046;2023-08-30T12:23:24;20.20;99.90
16838;DHT22;19510;54.486;9.046;2023-08-30T12:26:00;20.10;99.90
16838;DHT22;19510;54.486;9.046;2023-08-30T12:28:27;20.00;99.90
16838;DHT22;19510;54.486;9.046;2023-08-30T12:30:54;20.00;99.90
16838;DHT22;19510;54.486;9.046;2023-08-30T12:36:42;19.80;99.90
16838;DHT22;19510;54.486;9.046;2023-08-30T12:39:08;19.70;99.90
16838;DHT22;19510;54.486;9.046;2023-08-30T12:41:34;19.60;99.90
16838;DHT22;19510;54.486;9.046;2023-08-30T12:43:59;19.50;99.90
16838;DHT22;19510;54.486;9.046;2023-08-30T12:46:26;19.40;99.90
16838;DHT22;19510;54.486;9.046;2023-08-30T12:48:52;19.30;99.90
16838;DHT22;19510;54.486;9.046;2023-08-30T12:51:20;19.20;99.90
16838;DHT22;19510;54.486;9.046;2023-08-30T12:53:45;19.20;99.90
16838;DHT22;19510;54.486;9.046;2023-08-30T12:56:11;19.20;99.90
16838;DHT22;19510;54.486;9.046;2023-08-30T12:58:37;19.20;99.90
16838;DHT22;19510;54.486;9.046;2023-08-30T13:01:03;19.10;99.90
16838;DHT22;19510;54.486;9.046;2023-08-30T13:03:30;19.20;99.90
16838;DHT22;19510;54.486;9.046;2023-08-30T13:05:55;19.30;99.90
16838;DHT22;19510;54.486;9.046;2023-08-30T13:08:21;19.40;99.90
16838;DHT22;19510;54.486;9.046;2023-08-30T13:10:47;19.50;99.90
16838;DHT22;19510;54.486;9.046;2023-08-30T13:13:13;19.60;99.90
16838;DHT22;19510;54.486;9.046;2023-08-30T13:15:40;19.70;99.90
16838;DHT22;19510;54.486;9.046;2023-08-30T13:18:08;19.70;99.90
16838;DHT22;19510;54.486;9.046;2023-08-30T13:20:38;19.90;99.90
16838;DHT22;19510;54.486;9.046;2023-08-30T13:23:04;20.00;99.90
16838;DHT22;19510;54.486;9.046;2023-08-30T13:25:30;20.00;99.90
16838;DHT22;19510;54.486;9.046;2023-08-30T13:27:55;20.00;99.90
16838;DHT22;19510;54.486;9.046;2023-08-30T13:30:23;20.10;99.90
16838;DHT22;19510;54.486;9.046;2023-08-30T13:32:49;20.10;99.90
16838;DHT22;19510;54.486;9.046;2023-08-30T13:35:14;20.20;99.90
16838;DHT22;19510;54.486;9.046;2023-08-30T13:37:40;20.30;99.90
16838;DHT22;19510;54.486;9.046;2023-08-30T13:40:06;20.40;99.90
16838;DHT22;19510;54.486;9.046;2023-08-30T13:42:34;20.50;99.90
16838;DHT22;19510;54.486;9.046;2023-08-30T13:45:03;20.60;99.90
16838;DHT22;19510;54.486;9.046;2023-08-30T13:47:29;20.70;99.90
16838;DHT22;19510;54.486;9.046;2023-08-30T13:49:57;20.60;99.90
16838;DHT22;19510;54.486;9.046;2023-08-30T13:52:25;20.60;99.90
16838;DHT22;19510;54.486;9.046;2023-08-30T13:54:54;20.60;99.90
16838;DHT22;19510;54.486;9.046;2023-08-30T13:57:19;20.60;99.90
16838;DHT22;19510;54.486;9.046;2023-08-30T13:59:45;20.70;99.90
16838;DHT22;19510;54.486;9.046;2023-08-30T14:02:12;20.70;99.90
16838;DHT22;19510;54.486;9.046;2023-08-30T14:04:38;20.70;99.90
16838;DHT22;19510;54.486;9.046;2023-08-30T14:07:03;20.70;99.90
16838;DHT22;19510;54.486;9.046;2023-08-30T14:09:32;20.70;99.90
16838;DHT22;19510;54.486;9.046;2023-08-30T14:12:00;20.70;99.90
16838;DHT22;19510;54.486;9.046;2023-08-30T14:14:26;20.80;99.90
16838;DHT22;19510;54.486;9.046;2023-08-30T14:16:54;20.70;99.90
16838;DHT22;19510;54.486;9.046;2023-08-30T14:19:20;20.70;99.90
16838;DHT22;19510;54.486;9.046;2023-08-30T14:21:48;20.70;99.90
16838;DHT22;19510;54.486;9.046;2023-08-30T14:24:14;20.70;99.90
16838;DHT22;19510;54.486;9.046;2023-08-30T14:26:39;20.70;99.90
16838;DHT22;19510;54.486;9.046;2023-08-30T14:29:05;20.70;99.90
16838;DHT22;19510;54.486;9.046;2023-08-30T14:31:31;20.70;99.90
16838;DHT22;19510;54.486;9.046;2023-08-30T14:33:56;20.70;99.90
16838;DHT22;19510;54.486;9.046;2023-08-30T14:36:23;20.70;99.90
16838;DHT22;19510;54.486;9.046;2023-08-30T14:38:48;20.70;99.90
16838;DHT22;19510;54.486;9.046;2023-08-30T14:41:17;20.70;99.90
16838;DHT22;19510;54.486;9.046;2023-08-30T14:43:43;20.60;99.90
16838;DHT22;19510;54.486;9.046;2023-08-30T14:46:09;20.60;99.90
16838;DHT22;19510;54.486;9.046;2023-08-30T14:48:39;20.50;99.90
16838;DHT22;19510;54.486;9.046;2023-08-30T14:51:05;20.60;99.90
16838;DHT22;19510;54.486;9.046;2023-08-30T14:53:32;20.50;99.90
16838;DHT22;19510;54.486;9.046;2023-08-30T14:55:58;20.50;99.90
16838;DHT22;19510;54.486;9.046;2023-08-30T14:58:23;20.40;99.90
16838;DHT22;19510;54.486;9.046;2023-08-30T15:00:52;20.40;99.90
16838;DHT22;19510;54.486;9.046;2023-08-30T15:03:18;20.40;99.90
16838;DHT22;19510;54.486;9.046;2023-08-30T15:05:44;20.50;99.90
16838;DHT22;19510;54.486;9.046;2023-08-30T15:08:18;20.50;99.90
16838;DHT22;19510;54.486;9.046;2023-08-30T15:10:44;20.50;99.90
16838;DHT22;19510;54.486;9.046;2023-08-30T15:13:09;20.50;99.90
16838;DHT22;19510;54.486;9.046;2023-08-30T15:15:35;20.40;99.90
16838;DHT22;19510;54.486;9.046;2023-08-30T15:18:03;20.30;99.90
16838;DHT22;19510;54.486;9.046;2023-08-30T15:20:29;20.30;99.90
16838;DHT22;19510;54.486;9.046;2023-08-30T15:22:55;20.20;99.90
16838;DHT22;19510;54.486;9.046;2023-08-30T15:25:24;20.10;99.90
16838;DHT22;19510;54.486;9.046;2023-08-30T15:27:55;20.00;99.90
16838;DHT22;19510;54.486;9.046;2023-08-30T15:30:21;19.80;99.90
16838;DHT22;19510;54.486;9.046;2023-08-30T15:32:46;19.80;99.90
16838;DHT22;19510;54.486;9.046;2023-08-30T15:35:14;19.80;99.90
16838;DHT22;19510;54.486;9.046;2023-08-30T15:37:40;19.70;99.90
16838;DHT22;19510;54.486;9.046;2023-08-30T15:40:09;19.60;99.90
16838;DHT22;19510;54.486;9.046;2023-08-30T15:42:35;19.50;99.90
16838;DHT22;19510;54.486;9.046;2023-08-30T15:45:01;19.40;99.90
16838;DHT22;19510;54.486;9.046;2023-08-30T15:47:31;19.30;99.90
16838;DHT22;19510;54.486;9.046;2023-08-30T15:49:56;19.20;99.90